sensor_id;sensor_type;location;lat;lon;timestamp;pressure;altitude;pressure_sealevel;temperature;humidity
43553;BME280;29153;42.696;23.218;2024-03-02T00:01:45;93885.53;;;7.82;100.00
43553;BME280;29153;42.696;23.218;2024-03-02T00:04:13;93878.41;;;7.80;100.00
43553;BME280;29153;42.696;23.218;2024-03-02T00:06:40;93886.53;;;7.89;100.00
43553;BME280;29153;42.696;23.218;2024-03-02T00:09:09;93899.97;;;7.95;100.00
43553;BME280;29153;42.696;23.218;2024-03-02T00:11:39;93903.37;;;7.98;100.00
43553;BME280;29153;42.696;23.218;2024-03-02T00:14:06;93905.75;;;7.99;100.00
43553;BME280;29153;42.696;23.218;2024-03-02T00:16:38;93904.73;;;7.88;100.00
43553;BME280;29153;42.696;23.218;2024-03-02T00:19:06;93901.28;;;7.92;100.00
43553;BME280;29153;42.696;23.218;2024-03-02T00:21:34;93902.09;;;7.90;100.00
43553;BME280;29153;42.696;23.218;2024-03-02T00:26:32;93902.36;;;7.91;100.00
43553;BME280;29153;42.696;23.218;2024-03-02T00:29:00;93906.81;;;7.93;100.00
43553;BME280;29153;42.696;23.218;2024-03-02T00:31:27;93900.78;;;7.90;100.00
43553;BME280;29153;42.696;23.218;2024-03-02T00:33:55;93901.83;;;7.89;100.00
43553;BME280;29153;42.696;23.218;2024-03-02T00:36:25;93897.61;;;7.88;100.00
43553;BME280;29153;42.696;23.218;2024-03-02T00:38:54;93896.09;;;7.77;100.00
43553;BME280;29153;42.696;23.218;2024-03-02T00:41:25;93891.90;;;7.73;100.00
43553;BME280;29153;42.696;23.218;2024-03-02T00:43:57;93883.70;;;7.75;100.00
43553;BME280;29153;42.696;23.218;2024-03-02T00:46:28;93894.51;;;7.76;100.00
43553;BME280;29153;42.696;23.218;2024-03-02T00:49:00;93886.61;;;7.78;100.00
43553;BME280;29153;42.696;23.218;2024-03-02T00:51:30;93882.63;;;7.81;100.00
43553;BME280;29153;42.696;23.218;2024-03-02T00:54:03;93879.44;;;7.84;100.00
43553;BME280;29153;42.696;23.218;2024-03-02T00:56:32;93885.77;;;7.86;100.00
43553;BME280;29153;42.696;23.218;2024-03-02T00:59:01;93888.59;;;7.97;100.00
43553;BME280;29153;42.696;23.218;2024-03-02T01:01:28;93885.98;;;7.92;100.00
43553;BME280;29153;42.696;23.218;2024-03-02T01:03:56;93889.94;;;7.92;100.00
43553;BME280;29153;42.696;23.218;2024-03-02T01:06:24;93890.75;;;7.90;100.00
43553;BME280;29153;42.696;23.218;2024-03-02T01:08:51;93881.27;;;7.89;100.00
43553;BME280;29153;42.696;23.218;2024-03-02T01:11:19;93888.67;;;7.84;100.00
43553;BME280;29153;42.696;23.218;2024-03-02T01:13:50;93881.34;;;7.71;100.00
43553;BME280;29153;42.696;23.218;2024-03-02T01:16:18;93875.79;;;7.75;100.00
43553;BME280;29153;42.696;23.218;2024-03-02T01:18:46;93868.23;;;7.61;100.00
43553;BME280;29153;42.696;23.218;2024-03-02T01:21:13;93869.26;;;7.62;100.00
43553;BME280;29153;42.696;23.218;2024-03-02T01:23:41;93862.91;;;7.66;100.00
43553;BME280;29153;42.696;23.218;2024-03-02T01:26:09;93858.48;;;7.61;100.00
43553;BME280;29153;42.696;23.218;2024-03-02T01:28:36;93856.09;;;7.57;100.00
43553;BME280;29153;42.696;23.218;2024-03-02T01:31:04;93851.13;;;7.56;100.00
43553;BME280;29153;42.696;23.218;2024-03-02T01:33:31;93854.52;;;7.59;100.00
43553;BME280;29153;42.696;23.218;2024-03-02T01:35:59;93848.50;;;7.51;100.00
43553;BME280;29153;42.696;23.218;2024-03-02T01:38:26;93843.98;;;7.61;100.00
43553;BME280;29153;42.696;23.218;2024-03-02T01:40:55;93843.48;;;7.57;100.00
43553;BME280;29153;42.696;23.218;2024-03-02T01:43:23;93839.28;;;7.51;100.00
43553;BME280;29153;42.696;23.218;2024-03-02T01:45:50;93838.16;;;7.62;100.00
43553;BME280;29153;42.696;23.218;2024-03-02T01:48:18;93837.70;;;7.50;100.00
43553;BME280;29153;42.696;23.218;2024-03-02T01:50:46;93842.75;;;7.44;100.00
43553;BME280;29153;42.696;23.218;2024-03-02T01:53:13;93841.70;;;7.37;100.00
43553;BME280;29153;42.696;23.218;2024-03-02T01:55:41;93840.40;;;7.32;100.00
43553;BME280;29153;42.696;23.218;2024-03-02T01:58:09;93752.69;;;6.70;100.00
43553;BME280;29153;42.696;23.218;2024-03-02T02:00:37;93835.70;;;7.19;100.00
43553;BME280;29153;42.696;23.218;2024-03-02T02:03:04;93751.64;;;6.66;100.00
43553;BME280;29153;42.696;23.218;2024-03-02T02:05:34;93838.88;;;7.16;100.00
43553;BME280;29153;42.696;23.218;2024-03-02T02:08:02;93841.80;;;7.14;100.00
43553;BME280;29153;42.696;23.218;2024-03-02T02:10:29;93841.53;;;7.18;100.00
43553;BME280;29153;42.696;23.218;2024-03-02T02:12:57;93836.78;;;7.15;100.00
43553;BME280;29153;42.696;23.218;2024-03-02T02:15:29;93838.09;;;7.15;100.00
43553;BME280;29153;42.696;23.218;2024-03-02T02:17:58;93837.56;;;7.16;100.00
43553;BME280;29153;42.696;23.218;2024-03-02T02:20:26;93846.02;;;7.08;100.00
43553;BME280;29153;42.696;23.218;2024-03-02T02:23:03;93844.45;;;7.04;100.00
43553;BME280;29153;42.696;23.218;2024-03-02T02:25:33;93842.04;;;7.15;100.00
43553;BME280;29153;42.696;23.218;2024-03-02T02:28:00;93841.02;;;7.14;100.00
43553;BME280;29153;42.696;23.218;2024-03-02T02:30:31;93839.42;;;7.10;100.00
43553;BME280;29153;42.696;23.218;2024-03-02T02:32:59;93835.47;;;7.10;100.00
43553;BME280;29153;42.696;23.218;2024-03-02T02:35:26;93837.58;;;7.11;100.00
43553;BME280;29153;42.696;23.218;2024-03-02T02:37:56;93759.54;;;6.66;100.00
43553;BME280;29153;42.696;23.218;2024-03-02T02:40:25;93837.34;;;7.05;100.00
43553;BME280;29153;42.696;23.218;2024-03-02T02:42:52;93837.34;;;7.10;100.00
43553;BME280;29153;42.696;23.218;2024-03-02T02:45:20;93833.10;;;7.11;100.00
43553;BME280;29153;42.696;23.218;2024-03-02T02:47:48;93838.10;;;7.10;100.00
43553;BME280;29153;42.696;23.218;2024-03-02T02:50:15;93841.83;;;7.04;100.00
43553;BME280;29153;42.696;23.218;2024-03-02T02:52:43;93838.14;;;7.05;100.00
43553;BME280;29153;42.696;23.218;2024-03-02T02:55:12;93839.70;;;7.14;100.00
43553;BME280;29153;42.696;23.218;2024-03-02T02:57:42;93842.86;;;7.08;100.00
43553;BME280;29153;42.696;23.218;2024-03-02T03:00:14;93842.06;;;7.13;100.00
43553;BME280;29153;42.696;23.218;2024-03-02T03:02:45;93848.38;;;7.12;100.00
43553;BME280;29153;42.696;23.218;2024-03-02T03:05:14;93842.86;;;7.13;100.00
43553;BME280;29153;42.696;23.218;2024-03-02T03:07:41;93834.16;;;7.13;100.00
43553;BME280;29153;42.696;23.218;2024-03-02T03:10:10;93844.42;;;7.12;100.00
43553;BME280;29153;42.696;23.218;2024-03-02T03:12:38;93841.00;;;7.11;100.00
43553;BME280;29153;42.696;23.218;2024-03-02T03:15:08;93847.58;;;7.16;100.00
43553;BME280;29153;42.696;23.218;2024-03-02T03:17:36;93848.88;;;7.21;100.00
43553;BME280;29153;42.696;23.218;2024-03-02T03:20:04;93847.08;;;7.14;100.00
43553;BME280;29153;42.696;23.218;2024-03-02T03:22:32;93845.48;;;7.18;100.00
43553;BME280;29153;42.696;23.218;2024-03-02T03:24:59;93838.38;;;7.14;100.00
43553;BME280;29153;42.696;23.218;2024-03-02T03:27:27;93839.66;;;7.19;100.00
43553;BME280;29153;42.696;23.218;2024-03-02T03:29:55;93837.30;;;7.22;100.00
43553;BME280;29153;42.696;23.218;2024-03-02T03:32:22;93835.98;;;7.22;100.00
43553;BME280;29153;42.696;23.218;2024-03-02T03:34:51;93841.75;;;7.24;100.00
43553;BME280;29153;42.696;23.218;2024-03-02T03:37:18;93844.12;;;7.23;100.00
43553;BME280;29153;42.696;23.218;2024-03-02T03:39:46;93844.95;;;7.16;100.00
43553;BME280;29153;42.696;23.218;2024-03-02T03:42:13;93843.64;;;7.11;100.00
43553;BME280;29153;42.696;23.218;2024-03-02T03:44:41;93839.67;;;7.16;100.00
43553;BME280;29153;42.696;23.218;2024-03-02T03:47:09;93845.48;;;7.18;100.00
43553;BME280;29153;42.696;23.218;2024-03-02T03:49:36;93840.73;;;7.18;100.00
43553;BME280;29153;42.696;23.218;2024-03-02T03:52:04;93838.33;;;7.24;100.00
43553;BME280;29153;42.696;23.218;2024-03-02T03:54:32;93839.66;;;7.21;100.00
43553;BME280;29153;42.696;23.218;2024-03-02T03:56:59;93847.56;;;7.21;100.00
43553;BME280;29153;42.696;23.218;2024-03-02T03:59:27;93843.61;;;7.21;100.00
43553;BME280;29153;42.696;23.218;2024-03-02T04:01:54;93844.12;;;7.23;100.00
43553;BME280;29153;42.696;23.218;2024-03-02T04:04:22;93840.97;;;7.19;100.00
43553;BME280;29153;42.696;23.218;2024-03-02T04:06:50;93845.20;;;7.22;100.00
43553;BME280;29153;42.696;23.218;2024-03-02T04:09:17;93844.91;;;7.24;100.00
43553;BME280;29153;42.696;23.218;2024-03-02T04:11:45;93840.70;;;7.25;100.00
43553;BME280;29153;42.696;23.218;2024-03-02T04:14:12;93844.13;;;7.26;100.00
43553;BME280;29153;42.696;23.218;2024-03-02T04:16:40;93843.88;;;7.22;100.00
43553;BME280;29153;42.696;23.218;2024-03-02T04:19:07;93841.77;;;7.19;100.00
43553;BME280;29153;42.696;23.218;2024-03-02T04:21:35;93840.20;;;7.16;100.00
43553;BME280;29153;42.696;23.218;2024-03-02T04:24:03;93841.53;;;7.18;100.00
43553;BME280;29153;42.696;23.218;2024-03-02T04:26:31;93845.48;;;7.18;100.00
43553;BME280;29153;42.696;23.218;2024-03-02T04:28:58;93843.11;;;7.12;100.00
43553;BME280;29153;42.696;23.218;2024-03-02T04:31:26;93841.55;;;7.08;100.00
43553;BME280;29153;42.696;23.218;2024-03-02T04:33:53;93839.69;;;7.11;100.00
43553;BME280;29153;42.696;23.218;2024-03-02T04:36:21;93837.86;;;7.09;100.00
43553;BME280;29153;42.696;23.218;2024-03-02T04:38:50;93841.28;;;7.07;100.00
43553;BME280;29153;42.696;23.218;2024-03-02T04:41:17;93846.02;;;7.08;100.00
43553;BME280;29153;42.696;23.218;2024-03-02T04:43:45;93843.39;;;7.03;100.00
43553;BME280;29153;42.696;23.218;2024-03-02T04:46:12;93846.05;;;6.95;100.00
43553;BME280;29153;42.696;23.218;2024-03-02T04:48:40;93852.11;;;7.01;100.00
43553;BME280;29153;42.696;23.218;2024-03-02T04:51:08;93851.30;;;6.98;100.00
43553;BME280;29153;42.696;23.218;2024-03-02T04:53:35;93850.80;;;6.96;100.00
43553;BME280;29153;42.696;23.218;2024-03-02T04:56:03;93848.41;;;6.99;100.00
43553;BME280;29153;42.696;23.218;2024-03-02T04:58:38;93849.75;;;6.97;100.00
43553;BME280;29153;42.696;23.218;2024-03-02T05:01:06;93857.38;;;6.96;100.00
43553;BME280;29153;42.696;23.218;2024-03-02T05:03:33;93859.20;;;7.03;100.00
43553;BME280;29153;42.696;23.218;2024-03-02T05:06:01;93853.95;;;7.00;100.00
43553;BME280;29153;42.696;23.218;2024-03-02T05:08:28;93860.80;;;6.96;100.00
43553;BME280;29153;42.696;23.218;2024-03-02T05:10:56;93857.91;;;6.95;100.00
43553;BME280;29153;42.696;23.218;2024-03-02T05:13:25;93857.92;;;6.93;100.00
43553;BME280;29153;42.696;23.218;2024-03-02T05:15:54;93867.39;;;6.91;100.00
43553;BME280;29153;42.696;23.218;2024-03-02T05:18:21;93864.23;;;6.92;100.00
43553;BME280;29153;42.696;23.218;2024-03-02T05:20:50;93868.45;;;6.88;100.00
43553;BME280;29153;42.696;23.218;2024-03-02T05:23:17;93869.77;;;6.88;100.00
43553;BME280;29153;42.696;23.218;2024-03-02T05:25:45;93870.81;;;6.92;100.00
43553;BME280;29153;42.696;23.218;2024-03-02T05:28:12;93871.05;;;6.98;100.00
43553;BME280;29153;42.696;23.218;2024-03-02T05:30:42;93876.60;;;6.96;100.00
43553;BME280;29153;42.696;23.218;2024-03-02T05:33:10;93878.97;;;7.00;100.00
43553;BME280;29153;42.696;23.218;2024-03-02T05:35:37;93882.14;;;6.97;100.00
43553;BME280;29153;42.696;23.218;2024-03-02T05:38:05;93883.69;;;7.03;100.00
43553;BME280;29153;42.696;23.218;2024-03-02T05:40:32;93883.68;;;7.08;100.00
43553;BME280;29153;42.696;23.218;2024-03-02T05:43:00;93883.67;;;7.13;100.00
43553;BME280;29153;42.696;23.218;2024-03-02T05:45:27;93887.90;;;7.09;100.00
43553;BME280;29153;42.696;23.218;2024-03-02T05:47:55;93884.99;;;7.13;100.00
43553;BME280;29153;42.696;23.218;2024-03-02T05:50:22;93891.31;;;7.12;100.00
43553;BME280;29153;42.696;23.218;2024-03-02T05:52:50;93887.08;;;7.16;100.00
43553;BME280;29153;42.696;23.218;2024-03-02T05:55:18;93891.59;;;7.06;100.00
43553;BME280;29153;42.696;23.218;2024-03-02T05:57:45;93893.42;;;7.13;100.00
43553;BME280;29153;42.696;23.218;2024-03-02T06:00:26;93894.97;;;7.19;100.00
43553;BME280;29153;42.696;23.218;2024-03-02T06:02:54;93896.30;;;7.21;100.00
43553;BME280;29153;42.696;23.218;2024-03-02T06:05:22;93890.79;;;7.08;100.00
43553;BME280;29153;42.696;23.218;2024-03-02T06:07:49;93898.41;;;7.12;100.00
43553;BME280;29153;42.696;23.218;2024-03-02T06:10:17;93891.84;;;7.14;100.00
43553;BME280;29153;42.696;23.218;2024-03-02T06:12:44;93896.02;;;7.20;100.00
43553;BME280;29153;42.696;23.218;2024-03-02T06:15:12;93896.02;;;7.20;100.00
43553;BME280;29153;42.696;23.218;2024-03-02T06:17:39;93897.08;;;7.27;100.00
43553;BME280;29153;42.696;23.218;2024-03-02T06:20:07;93899.16;;;7.27;100.00
43553;BME280;29153;42.696;23.218;2024-03-02T06:22:35;93904.17;;;7.24;100.00
43553;BME280;29153;42.696;23.218;2024-03-02T06:25:02;93903.11;;;7.27;100.00
43553;BME280;29153;42.696;23.218;2024-03-02T06:27:30;93896.75;;;7.41;100.00
43553;BME280;29153;42.696;23.218;2024-03-02T06:29:58;93898.31;;;7.45;100.00
43553;BME280;29153;42.696;23.218;2024-03-02T06:32:25;93895.42;;;7.46;100.00
43553;BME280;29153;42.696;23.218;2024-03-02T06:34:53;93901.50;;;7.42;100.00
43553;BME280;29153;42.696;23.218;2024-03-02T06:37:20;93900.42;;;7.53;100.00
43553;BME280;29153;42.696;23.218;2024-03-02T06:39:48;93909.34;;;7.59;100.00
43553;BME280;29153;42.696;23.218;2024-03-02T06:42:15;93905.14;;;7.56;100.00
43553;BME280;29153;42.696;23.218;2024-03-02T06:44:43;93909.13;;;7.48;100.00
43553;BME280;29153;42.696;23.218;2024-03-02T06:47:11;93914.89;;;7.55;100.00
43553;BME280;29153;42.696;23.218;2024-03-02T06:49:38;93915.98;;;7.47;100.00
43553;BME280;29153;42.696;23.218;2024-03-02T06:52:06;93923.88;;;7.47;100.00
43553;BME280;29153;42.696;23.218;2024-03-02T06:54:33;93917.02;;;7.51;100.00
43553;BME280;29153;42.696;23.218;2024-03-02T06:57:01;93919.11;;;7.54;100.00
43553;BME280;29153;42.696;23.218;2024-03-02T06:59:28;93922.01;;;7.55;100.00
43553;BME280;29153;42.696;23.218;2024-03-02T07:01:56;93921.50;;;7.53;100.00
43553;BME280;29153;42.696;23.218;2024-03-02T07:04:24;93922.55;;;7.57;100.00
43553;BME280;29153;42.696;23.218;2024-03-02T07:06:51;93923.58;;;7.53;100.00
43553;BME280;29153;42.696;23.218;2024-03-02T07:09:19;93927.83;;;7.52;100.00
43553;BME280;29153;42.696;23.218;2024-03-02T07:11:48;93927.25;;;7.65;100.00
43553;BME280;29153;42.696;23.218;2024-03-02T07:14:16;93924.88;;;7.63;100.00
43553;BME280;29153;42.696;23.218;2024-03-02T07:16:44;93928.02;;;7.68;100.00
43553;BME280;29153;42.696;23.218;2024-03-02T07:19:11;93927.50;;;7.68;100.00
43553;BME280;29153;42.696;23.218;2024-03-02T07:21:39;93924.84;;;7.71;100.00
43553;BME280;29153;42.696;23.218;2024-03-02T07:24:06;93928.78;;;7.76;100.00
43553;BME280;29153;42.696;23.218;2024-03-02T07:26:35;93930.57;;;7.88;100.00
43553;BME280;29153;42.696;23.218;2024-03-02T07:29:03;93926.37;;;7.87;100.00
43553;BME280;29153;42.696;23.218;2024-03-02T07:31:31;93927.69;;;7.85;100.00
43553;BME280;29153;42.696;23.218;2024-03-02T07:33:58;93926.31;;;7.97;100.00
43553;BME280;29153;42.696;23.218;2024-03-02T07:36:26;93933.43;;;7.97;100.00
43553;BME280;29153;42.696;23.218;2024-03-02T07:38:53;93930.84;;;7.89;100.00
43553;BME280;29153;42.696;23.218;2024-03-02T07:41:21;93936.88;;;7.92;100.00
43553;BME280;29153;42.696;23.218;2024-03-02T07:43:48;93936.88;;;7.92;100.00
43553;BME280;29153;42.696;23.218;2024-03-02T07:46:16;93942.42;;;7.93;100.00
43553;BME280;29153;42.696;23.218;2024-03-02T07:48:44;93942.19;;;7.85;100.00
43553;BME280;29153;42.696;23.218;2024-03-02T07:51:11;93938.23;;;7.85;100.00
43553;BME280;29153;42.696;23.218;2024-03-02T07:53:40;93939.11;;;7.70;100.00
43553;BME280;29153;42.696;23.218;2024-03-02T07:56:07;93940.59;;;7.89;100.00
43553;BME280;29153;42.696;23.218;2024-03-02T07:58:35;93942.94;;;7.93;100.00
43553;BME280;29153;42.696;23.218;2024-03-02T08:01:03;93945.35;;;7.84;100.00
43553;BME280;29153;42.696;23.218;2024-03-02T08:03:31;93943.27;;;7.81;100.00
43553;BME280;29153;42.696;23.218;2024-03-02T08:06:00;93946.41;;;7.86;100.00
43553;BME280;29153;42.696;23.218;2024-03-02T08:08:28;93947.47;;;7.87;100.00
43553;BME280;29153;42.696;23.218;2024-03-02T08:10:55;93950.31;;;7.98;100.00
43553;BME280;29153;42.696;23.218;2024-03-02T08:13:23;93952.08;;;8.15;100.00
43553;BME280;29153;42.696;23.218;2024-03-02T08:15:51;93947.64;;;8.08;100.00
43553;BME280;29153;42.696;23.218;2024-03-02T08:18:18;93950.58;;;7.99;100.00
43553;BME280;29153;42.696;23.218;2024-03-02T08:20:46;93948.59;;;8.22;100.00
43553;BME280;29153;42.696;23.218;2024-03-02T08:23:13;93952.30;;;8.24;100.00
43553;BME280;29153;42.696;23.218;2024-03-02T08:25:41;93952.84;;;8.18;100.00
43553;BME280;29153;42.696;23.218;2024-03-02T08:28:10;93950.45;;;8.30;100.00
43553;BME280;29153;42.696;23.218;2024-03-02T08:30:38;93951.77;;;8.24;100.00
43553;BME280;29153;42.696;23.218;2024-03-02T08:33:05;93956.47;;;8.35;100.00
43553;BME280;29153;42.696;23.218;2024-03-02T08:35:33;93954.57;;;8.43;100.00
43553;BME280;29153;42.696;23.218;2024-03-02T08:38:03;93954.57;;;8.43;100.00
43553;BME280;29153;42.696;23.218;2024-03-02T08:40:31;93948.47;;;8.50;100.00
43553;BME280;29153;42.696;23.218;2024-03-02T08:42:59;93959.77;;;8.56;100.00
43553;BME280;29153;42.696;23.218;2024-03-02T08:45:26;93880.37;;;8.08;100.00
43553;BME280;29153;42.696;23.218;2024-03-02T08:47:54;93963.38;;;8.70;100.00
43553;BME280;29153;42.696;23.218;2024-03-02T08:50:21;93962.29;;;8.74;100.00
43553;BME280;29153;42.696;23.218;2024-03-02T08:52:49;93961.37;;;8.91;100.00
43553;BME280;29153;42.696;23.218;2024-03-02T08:55:17;93961.99;;;8.78;100.00
43553;BME280;29153;42.696;23.218;2024-03-02T08:57:44;93964.95;;;8.71;100.00
43553;BME280;29153;42.696;23.218;2024-03-02T09:00:12;93963.91;;;8.72;100.00
43553;BME280;29153;42.696;23.218;2024-03-02T09:03:07;93965.13;;;8.82;100.00
43553;BME280;29153;42.696;23.218;2024-03-02T09:05:31;93965.06;;;8.92;100.00
43553;BME280;29153;42.696;23.218;2024-03-02T09:07:59;93963.52;;;8.86;100.00
43553;BME280;29153;42.696;23.218;2024-03-02T09:10:27;93966.45;;;8.85;100.00
43553;BME280;29153;42.696;23.218;2024-03-02T09:12:54;93965.03;;;8.97;100.00
43553;BME280;29153;42.696;23.218;2024-03-02T09:15:22;93968.95;;;9.02;100.00
43553;BME280;29153;42.696;23.218;2024-03-02T09:17:50;93974.66;;;9.14;100.00
43553;BME280;29153;42.696;23.218;2024-03-02T09:20:17;93979.38;;;9.18;100.00
43553;BME280;29153;42.696;23.218;2024-03-02T09:22:45;93974.02;;;9.28;100.00
43553;BME280;29153;42.696;23.218;2024-03-02T09:25:14;93981.23;;;9.20;100.00
43553;BME280;29153;42.696;23.218;2024-03-02T09:27:42;93978.52;;;9.27;100.00
43553;BME280;29153;42.696;23.218;2024-03-02T09:30:10;93982.70;;;9.31;100.00
43553;BME280;29153;42.696;23.218;2024-03-02T09:32:38;93991.91;;;9.36;100.00
43553;BME280;29153;42.696;23.218;2024-03-02T09:35:06;93990.33;;;9.35;100.00
43553;BME280;29153;42.696;23.218;2024-03-02T09:37:33;94000.11;;;9.34;100.00
43553;BME280;29153;42.696;23.218;2024-03-02T09:40:01;93999.36;;;9.29;100.00
43553;BME280;29153;42.696;23.218;2024-03-02T09:42:29;93998.44;;;9.14;100.00
43553;BME280;29153;42.696;23.218;2024-03-02T09:44:58;93989.98;;;9.12;100.00
43553;BME280;29153;42.696;23.218;2024-03-02T09:47:26;93989.98;;;9.15;100.00
43553;BME280;29153;42.696;23.218;2024-03-02T09:49:54;93994.78;;;9.08;100.00
43553;BME280;29153;42.696;23.218;2024-03-02T09:52:23;93994.52;;;9.09;100.00
43553;BME280;29153;42.696;23.218;2024-03-02T09:54:50;93994.67;;;9.21;100.00
43553;BME280;29153;42.696;23.218;2024-03-02T09:57:18;93992.82;;;9.24;100.00
43553;BME280;29153;42.696;23.218;2024-03-02T09:59:45;93994.90;;;9.27;100.00
43553;BME280;29153;42.696;23.218;2024-03-02T10:02:13;93994.97;;;9.19;100.00
43553;BME280;29153;42.696;23.218;2024-03-02T10:04:42;93998.64;;;9.21;100.00
43553;BME280;29153;42.696;23.218;2024-03-02T10:07:15;93994.56;;;9.36;100.00
43553;BME280;29153;42.696;23.218;2024-03-02T10:09:44;94000.30;;;9.45;100.00
43553;BME280;29153;42.696;23.218;2024-03-02T10:12:14;93996.86;;;9.45;100.00
43553;BME280;29153;42.696;23.218;2024-03-02T10:14:43;93994.13;;;9.52;100.00
43553;BME280;29153;42.696;23.218;2024-03-02T10:17:12;93995.91;;;9.59;100.00
43553;BME280;29153;42.696;23.218;2024-03-02T10:19:40;93993.17;;;9.67;100.00
43553;BME280;29153;42.696;23.218;2024-03-02T10:22:09;93993.34;;;9.78;100.00
43553;BME280;29153;42.696;23.218;2024-03-02T10:24:41;93992.20;;;9.84;100.00
43553;BME280;29153;42.696;23.218;2024-03-02T10:27:27;93988.00;;;9.83;100.00
43553;BME280;29153;42.696;23.218;2024-03-02T10:29:56;93989.25;;;9.88;100.00
43553;BME280;29153;42.696;23.218;2024-03-02T10:32:23;93996.77;;;10.02;100.00
43553;BME280;29153;42.696;23.218;2024-03-02T10:34:52;93995.64;;;9.85;100.00
43553;BME280;29153;42.696;23.218;2024-03-02T10:37:20;93997.41;;;9.68;100.00
43553;BME280;29153;42.696;23.218;2024-03-02T10:39:47;93994.37;;;9.80;100.00
43553;BME280;29153;42.696;23.218;2024-03-02T10:42:15;93991.79;;;9.98;100.00
43553;BME280;29153;42.696;23.218;2024-03-02T10:44:43;93990.96;;;9.79;100.00
43553;BME280;29153;42.696;23.218;2024-03-02T10:47:12;93984.53;;;9.85;100.00
43553;BME280;29153;42.696;23.218;2024-03-02T10:49:42;93984.49;;;9.64;100.00
43553;BME280;29153;42.696;23.218;2024-03-02T10:52:10;93976.94;;;9.79;100.00
43553;BME280;29153;42.696;23.218;2024-03-02T10:54:37;93981.78;;;9.95;100.00
43553;BME280;29153;42.696;23.218;2024-03-02T10:57:05;93986.34;;;10.11;100.00
43553;BME280;29153;42.696;23.218;2024-03-02T10:59:37;93985.00;;;10.16;100.00
43553;BME280;29153;42.696;23.218;2024-03-02T11:02:07;93981.82;;;10.17;100.00
43553;BME280;29153;42.696;23.218;2024-03-02T11:04:38;93987.80;;;10.25;100.00
43553;BME280;29153;42.696;23.218;2024-03-02T11:07:09;93980.97;;;10.21;100.00
43553;BME280;29153;42.696;23.218;2024-03-02T11:09:42;93982.88;;;10.18;100.00
43553;BME280;29153;42.696;23.218;2024-03-02T11:12:31;93984.69;;;10.20;100.00
43553;BME280;29153;42.696;23.218;2024-03-02T11:14:59;93982.97;;;10.05;100.00
43553;BME280;29153;42.696;23.218;2024-03-02T11:17:28;93982.61;;;10.17;100.00
43553;BME280;29153;42.696;23.218;2024-03-02T11:19:56;93982.19;;;10.29;100.00
43553;BME280;29153;42.696;23.218;2024-03-02T11:22:24;93978.94;;;10.11;100.00
43553;BME280;29153;42.696;23.218;2024-03-02T11:24:52;93970.84;;;10.02;100.00
43553;BME280;29153;42.696;23.218;2024-03-02T11:33:08;93971.23;;;10.17;100.00
43553;BME280;29153;42.696;23.218;2024-03-02T11:35:37;93968.29;;;9.94;100.00
43553;BME280;29153;42.696;23.218;2024-03-02T11:38:06;93968.55;;;9.95;100.00
43553;BME280;29153;42.696;23.218;2024-03-02T11:40:34;93963.26;;;9.95;100.00
43553;BME280;29153;42.696;23.218;2024-03-02T11:43:02;93961.36;;;9.98;100.00
43553;BME280;29153;42.696;23.218;2024-03-02T11:45:29;93959.77;;;10.00;100.00
43553;BME280;29153;42.696;23.218;2024-03-02T11:47:59;93964.53;;;10.00;100.00
43553;BME280;29153;42.696;23.218;2024-03-02T11:50:34;93961.39;;;9.72;100.00
43553;BME280;29153;42.696;23.218;2024-03-02T11:53:07;93959.53;;;9.75;100.00
43553;BME280;29153;42.696;23.218;2024-03-02T11:55:36;93965.53;;;9.57;100.00
43553;BME280;29153;42.696;23.218;2024-03-02T11:58:04;93959.42;;;9.59;100.00
43553;BME280;29153;42.696;23.218;2024-03-02T12:00:31;93956.47;;;9.63;100.00
43553;BME280;29153;42.696;23.218;2024-03-02T12:03:11;93954.66;;;9.58;100.00
43553;BME280;29153;42.696;23.218;2024-03-02T12:05:38;93956.36;;;9.73;100.00
43553;BME280;29153;42.696;23.218;2024-03-02T12:08:07;93962.30;;;9.86;100.00
43553;BME280;29153;42.696;23.218;2024-03-02T12:10:35;93960.29;;;9.76;100.00
43553;BME280;29153;42.696;23.218;2024-03-02T12:13:05;93958.17;;;9.54;100.00
43553;BME280;29153;42.696;23.218;2024-03-02T12:15:35;93956.05;;;9.77;100.00
43553;BME280;29153;42.696;23.218;2024-03-02T12:18:07;93954.41;;;9.84;100.00
43553;BME280;29153;42.696;23.218;2024-03-02T12:20:36;93902.26;;;9.63;100.00
43553;BME280;29153;42.696;23.218;2024-03-02T12:23:05;93962.31;;;10.08;100.00
43553;BME280;29153;42.696;23.218;2024-03-02T12:25:33;93935.42;;;10.00;100.00
43553;BME280;29153;42.696;23.218;2024-03-02T12:28:01;93968.00;;;10.22;100.00
43553;BME280;29153;42.696;23.218;2024-03-02T12:30:32;93968.14;;;10.07;100.00
43553;BME280;29153;42.696;23.218;2024-03-02T12:33:00;93965.69;;;10.13;100.00
43553;BME280;29153;42.696;23.218;2024-03-02T12:35:28;93962.26;;;10.13;100.00
43553;BME280;29153;42.696;23.218;2024-03-02T12:37:56;93964.36;;;10.16;100.00
43553;BME280;29153;42.696;23.218;2024-03-02T12:40:24;93962.36;;;10.05;100.00
43553;BME280;29153;42.696;23.218;2024-03-02T12:42:52;93965.27;;;10.03;100.00
43553;BME280;29153;42.696;23.218;2024-03-02T12:45:20;93962.00;;;10.12;100.00
43553;BME280;29153;42.696;23.218;2024-03-02T12:47:52;93965.75;;;10.08;100.00
43553;BME280;29153;42.696;23.218;2024-03-02T12:50:20;93968.61;;;10.12;100.00
43553;BME280;29153;42.696;23.218;2024-03-02T12:52:54;93970.36;;;9.97;100.00
43553;BME280;29153;42.696;23.218;2024-03-02T12:55:22;93972.00;;;9.93;100.00
43553;BME280;29153;42.696;23.218;2024-03-02T12:57:50;93967.50;;;9.94;100.00
43553;BME280;29153;42.696;23.218;2024-03-02T13:00:19;93964.42;;;9.84;100.00
43553;BME280;29153;42.696;23.218;2024-03-02T13:02:47;93972.30;;;9.92;100.00
43553;BME280;29153;42.696;23.218;2024-03-02T13:05:16;93969.50;;;9.81;100.00